sensor_id;sensor_type;location;lat;lon;timestamp;temperature;humidity
18807;DHT22;9531;52.030;4.380;2022-08-19T00:00:40;18.70;99.90
18807;DHT22;9531;52.030;4.380;2022-08-19T00:03:07;18.70;99.90
18807;DHT22;9531;52.030;4.380;2022-08-19T00:05:35;18.60;99.90
18807;DHT22;9531;52.030;4.380;2022-08-19T00:08:02;18.60;99.90
18807;DHT22;9531;52.030;4.380;2022-08-19T00:10:29;18.60;99.90
18807;DHT22;9531;52.030;4.380;2022-08-19T00:12:56;18.60;99.90
18807;DHT22;9531;52.030;4.380;2022-08-19T00:15:25;18.60;99.90
18807;DHT22;9531;52.030;4.380;2022-08-19T00:17:54;18.60;99.90
18807;DHT22;9531;52.030;4.380;2022-08-19T00:20:21;18.50;99.90
18807;DHT22;9531;52.030;4.380;2022-08-19T00:22:49;18.50;99.90
18807;DHT22;9531;52.030;4.380;2022-08-19T00:25:16;18.50;99.90
18807;DHT22;9531;52.030;4.380;2022-08-19T00:27:44;18.50;99.90
18807;DHT22;9531;52.030;4.380;2022-08-19T00:30:11;18.40;99.90
18807;DHT22;9531;52.030;4.380;2022-08-19T00:32:39;18.40;99.90
18807;DHT22;9531;52.030;4.380;2022-08-19T00:35:08;18.40;99.90
18807;DHT22;9531;52.030;4.380;2022-08-19T00:37:36;18.40;99.90
18807;DHT22;9531;52.030;4.380;2022-08-19T00:40:05;18.30;99.90
18807;DHT22;9531;52.030;4.380;2022-08-19T00:42:32;18.30;99.90
18807;DHT22;9531;52.030;4.380;2022-08-19T00:44:59;18.30;99.90
18807;DHT22;9531;52.030;4.380;2022-08-19T00:47:26;18.30;99.90
18807;DHT22;9531;52.030;4.380;2022-08-19T00:49:56;18.30;99.90
18807;DHT22;9531;52.030;4.380;2022-08-19T00:52:27;18.30;99.90
18807;DHT22;9531;52.030;4.380;2022-08-19T00:54:56;18.20;99.90
18807;DHT22;9531;52.030;4.380;2022-08-19T00:57:27;18.30;99.90
18807;DHT22;9531;52.030;4.380;2022-08-19T00:59:56;18.20;99.90
18807;DHT22;9531;52.030;4.380;2022-08-19T01:02:24;18.20;99.90
18807;DHT22;9531;52.030;4.380;2022-08-19T01:04:52;18.20;99.90
18807;DHT22;9531;52.030;4.380;2022-08-19T01:07:20;18.20;99.90
18807;DHT22;9531;52.030;4.380;2022-08-19T01:09:47;18.20;99.90
18807;DHT22;9531;52.030;4.380;2022-08-19T01:12:16;18.10;99.90
18807;DHT22;9531;52.030;4.380;2022-08-19T01:14:44;18.10;99.90
18807;DHT22;9531;52.030;4.380;2022-08-19T01:17:11;18.10;99.90
18807;DHT22;9531;52.030;4.380;2022-08-19T01:19:41;18.10;99.90
18807;DHT22;9531;52.030;4.380;2022-08-19T01:22:14;18.10;99.90
18807;DHT22;9531;52.030;4.380;2022-08-19T01:24:44;18.10;99.90
18807;DHT22;9531;52.030;4.380;2022-08-19T01:27:11;18.10;99.90
18807;DHT22;9531;52.030;4.380;2022-08-19T01:29:39;18.00;99.90
18807;DHT22;9531;52.030;4.380;2022-08-19T01:32:07;18.00;99.90
18807;DHT22;9531;52.030;4.380;2022-08-19T01:34:35;18.00;99.90
18807;DHT22;9531;52.030;4.380;2022-08-19T01:37:06;18.00;99.90
18807;DHT22;9531;52.030;4.380;2022-08-19T01:39:34;18.00;99.90
18807;DHT22;9531;52.030;4.380;2022-08-19T01:42:03;18.00;99.90
18807;DHT22;9531;52.030;4.380;2022-08-19T01:44:31;18.00;99.90
18807;DHT22;9531;52.030;4.380;2022-08-19T01:46:59;17.90;99.90
18807;DHT22;9531;52.030;4.380;2022-08-19T01:49:27;17.90;99.90
18807;DHT22;9531;52.030;4.380;2022-08-19T01:51:56;17.90;99.90
18807;DHT22;9531;52.030;4.380;2022-08-19T01:54:25;17.90;99.90
18807;DHT22;9531;52.030;4.380;2022-08-19T01:56:59;17.90;99.90
18807;DHT22;9531;52.030;4.380;2022-08-19T01:59:29;17.90;99.90
18807;DHT22;9531;52.030;4.380;2022-08-19T02:01:59;17.90;99.90
18807;DHT22;9531;52.030;4.380;2022-08-19T02:04:26;17.80;99.90
18807;DHT22;9531;52.030;4.380;2022-08-19T02:06:53;17.80;99.90
18807;DHT22;9531;52.030;4.380;2022-08-19T02:09:20;17.80;99.90
18807;DHT22;9531;52.030;4.380;2022-08-19T02:11:47;17.80;99.90
18807;DHT22;9531;52.030;4.380;2022-08-19T02:14:15;17.80;99.90
18807;DHT22;9531;52.030;4.380;2022-08-19T02:16:43;17.80;99.90
18807;DHT22;9531;52.030;4.380;2022-08-19T02:19:10;17.80;99.90
18807;DHT22;9531;52.030;4.380;2022-08-19T02:21:37;17.80;99.90
18807;DHT22;9531;52.030;4.380;2022-08-19T02:24:05;17.70;99.90
18807;DHT22;9531;52.030;4.380;2022-08-19T02:26:32;17.70;99.90
18807;DHT22;9531;52.030;4.380;2022-08-19T02:29:05;17.70;99.90
18807;DHT22;9531;52.030;4.380;2022-08-19T02:31:32;17.70;99.90
18807;DHT22;9531;52.030;4.380;2022-08-19T02:34:03;17.70;99.90
18807;DHT22;9531;52.030;4.380;2022-08-19T02:36:30;17.70;99.90
18807;DHT22;9531;52.030;4.380;2022-08-19T02:38:59;17.70;99.90
18807;DHT22;9531;52.030;4.380;2022-08-19T02:41:28;17.80;99.90
18807;DHT22;9531;52.030;4.380;2022-08-19T02:43:57;17.70;99.90
18807;DHT22;9531;52.030;4.380;2022-08-19T02:46:28;17.70;99.90
18807;DHT22;9531;52.030;4.380;2022-08-19T02:49:03;17.70;99.90
18807;DHT22;9531;52.030;4.380;2022-08-19T02:51:36;17.80;99.90
18807;DHT22;9531;52.030;4.380;2022-08-19T02:54:04;17.80;99.90
18807;DHT22;9531;52.030;4.380;2022-08-19T02:56:34;17.70;99.90
18807;DHT22;9531;52.030;4.380;2022-08-19T02:59:01;17.80;99.90
18807;DHT22;9531;52.030;4.380;2022-08-19T03:01:32;17.80;99.90
18807;DHT22;9531;52.030;4.380;2022-08-19T03:04:04;17.80;99.90
18807;DHT22;9531;52.030;4.380;2022-08-19T03:06:34;17.80;99.90
18807;DHT22;9531;52.030;4.380;2022-08-19T03:09:02;17.80;99.90
18807;DHT22;9531;52.030;4.380;2022-08-19T03:11:31;17.80;99.90
18807;DHT22;9531;52.030;4.380;2022-08-19T03:13:58;17.80;99.90
18807;DHT22;9531;52.030;4.380;2022-08-19T03:16:27;17.80;99.90
18807;DHT22;9531;52.030;4.380;2022-08-19T03:18:57;17.80;99.90
18807;DHT22;9531;52.030;4.380;2022-08-19T03:21:27;17.80;99.90
18807;DHT22;9531;52.030;4.380;2022-08-19T03:23:57;17.80;99.90
18807;DHT22;9531;52.030;4.380;2022-08-19T03:26:24;17.80;99.90
18807;DHT22;9531;52.030;4.380;2022-08-19T03:28:52;17.80;99.90
18807;DHT22;9531;52.030;4.380;2022-08-19T03:31:21;17.80;99.90
18807;DHT22;9531;52.030;4.380;2022-08-19T03:33:48;17.80;99.90
18807;DHT22;9531;52.030;4.380;2022-08-19T03:36:19;17.80;99.90
18807;DHT22;9531;52.030;4.380;2022-08-19T03:38:51;17.80;99.90
18807;DHT22;9531;52.030;4.380;2022-08-19T03:41:23;17.80;99.90
18807;DHT22;9531;52.030;4.380;2022-08-19T03:43:52;17.80;99.90
18807;DHT22;9531;52.030;4.380;2022-08-19T03:46:22;17.80;99.90
18807;DHT22;9531;52.030;4.380;2022-08-19T03:48:51;17.80;99.90
18807;DHT22;9531;52.030;4.380;2022-08-19T03:51:21;17.80;99.90
18807;DHT22;9531;52.030;4.380;2022-08-19T03:53:51;17.90;99.90
18807;DHT22;9531;52.030;4.380;2022-08-19T03:56:20;17.80;99.90
18807;DHT22;9531;52.030;4.380;2022-08-19T03:58:48;17.90;99.90
18807;DHT22;9531;52.030;4.380;2022-08-19T04:01:17;17.90;99.90
18807;DHT22;9531;52.030;4.380;2022-08-19T04:03:45;17.90;99.90
18807;DHT22;9531;52.030;4.380;2022-08-19T04:06:17;17.90;99.90
18807;DHT22;9531;52.030;4.380;2022-08-19T04:08:45;17.90;99.90
18807;DHT22;9531;52.030;4.380;2022-08-19T04:11:15;17.90;99.90
18807;DHT22;9531;52.030;4.380;2022-08-19T04:13:44;17.90;99.90
18807;DHT22;9531;52.030;4.380;2022-08-19T04:16:11;17.90;99.90
18807;DHT22;9531;52.030;4.380;2022-08-19T04:18:39;17.90;99.90
18807;DHT22;9531;52.030;4.380;2022-08-19T04:21:08;18.00;99.90
18807;DHT22;9531;52.030;4.380;2022-08-19T04:23:35;18.00;99.90
18807;DHT22;9531;52.030;4.380;2022-08-19T04:26:02;18.00;99.90
18807;DHT22;9531;52.030;4.380;2022-08-19T04:28:29;18.00;99.90
18807;DHT22;9531;52.030;4.380;2022-08-19T04:30:58;18.00;99.90
18807;DHT22;9531;52.030;4.380;2022-08-19T04:33:25;18.10;99.90
18807;DHT22;9531;52.030;4.380;2022-08-19T04:35:54;18.10;99.90
18807;DHT22;9531;52.030;4.380;2022-08-19T04:38:23;18.10;99.90
18807;DHT22;9531;52.030;4.380;2022-08-19T04:40:51;18.10;99.90
18807;DHT22;9531;52.030;4.380;2022-08-19T04:43:37;18.20;99.90
18807;DHT22;9531;52.030;4.380;2022-08-19T04:46:07;18.20;99.90
18807;DHT22;9531;52.030;4.380;2022-08-19T04:48:36;18.20;99.90
18807;DHT22;9531;52.030;4.380;2022-08-19T04:51:07;18.30;99.90
18807;DHT22;9531;52.030;4.380;2022-08-19T04:53:37;18.30;99.90
18807;DHT22;9531;52.030;4.380;2022-08-19T04:56:07;18.30;99.90
18807;DHT22;9531;52.030;4.380;2022-08-19T04:58:34;18.40;99.90
18807;DHT22;9531;52.030;4.380;2022-08-19T05:01:02;18.40;99.90
18807;DHT22;9531;52.030;4.380;2022-08-19T05:03:31;18.40;99.90
18807;DHT22;9531;52.030;4.380;2022-08-19T05:06:04;18.40;99.90
18807;DHT22;9531;52.030;4.380;2022-08-19T05:08:34;18.50;99.90
18807;DHT22;9531;52.030;4.380;2022-08-19T05:11:11;18.50;99.90
18807;DHT22;9531;52.030;4.380;2022-08-19T05:13:39;18.50;99.90
18807;DHT22;9531;52.030;4.380;2022-08-19T05:16:06;18.60;99.90
18807;DHT22;9531;52.030;4.380;2022-08-19T05:18:36;18.60;99.90
18807;DHT22;9531;52.030;4.380;2022-08-19T05:21:21;18.60;99.90
18807;DHT22;9531;52.030;4.380;2022-08-19T05:24:05;18.70;99.90
18807;DHT22;9531;52.030;4.380;2022-08-19T05:26:34;18.70;99.90
18807;DHT22;9531;52.030;4.380;2022-08-19T05:29:02;18.70;99.90
18807;DHT22;9531;52.030;4.380;2022-08-19T05:31:29;18.80;99.90
18807;DHT22;9531;52.030;4.380;2022-08-19T05:33:58;18.80;99.90
18807;DHT22;9531;52.030;4.380;2022-08-19T05:36:26;18.80;99.90
18807;DHT22;9531;52.030;4.380;2022-08-19T05:38:54;18.90;99.90
18807;DHT22;9531;52.030;4.380;2022-08-19T05:41:22;18.90;99.90
18807;DHT22;9531;52.030;4.380;2022-08-19T05:43:56;19.00;99.90
18807;DHT22;9531;52.030;4.380;2022-08-19T05:46:24;19.00;99.90
18807;DHT22;9531;52.030;4.380;2022-08-19T05:48:51;19.00;99.90
18807;DHT22;9531;52.030;4.380;2022-08-19T05:51:20;19.10;99.90
18807;DHT22;9531;52.030;4.380;2022-08-19T05:53:48;19.10;99.90
18807;DHT22;9531;52.030;4.380;2022-08-19T05:56:16;19.20;99.90
18807;DHT22;9531;52.030;4.380;2022-08-19T05:58:45;19.20;99.90
18807;DHT22;9531;52.030;4.380;2022-08-19T06:01:14;19.20;99.90
18807;DHT22;9531;52.030;4.380;2022-08-19T06:03:41;19.30;99.90
18807;DHT22;9531;52.030;4.380;2022-08-19T06:06:11;19.30;99.90
18807;DHT22;9531;52.030;4.380;2022-08-19T06:08:40;19.30;99.90
18807;DHT22;9531;52.030;4.380;2022-08-19T06:11:13;19.40;99.90
18807;DHT22;9531;52.030;4.380;2022-08-19T06:13:40;19.50;99.90
18807;DHT22;9531;52.030;4.380;2022-08-19T06:16:08;19.60;99.90
18807;DHT22;9531;52.030;4.380;2022-08-19T06:18:35;19.60;99.90
18807;DHT22;9531;52.030;4.380;2022-08-19T06:21:02;19.80;99.90
18807;DHT22;9531;52.030;4.380;2022-08-19T06:23:30;19.80;99.90
18807;DHT22;9531;52.030;4.380;2022-08-19T06:25:58;19.90;99.90
18807;DHT22;9531;52.030;4.380;2022-08-19T06:28:25;20.00;99.90
18807;DHT22;9531;52.030;4.380;2022-08-19T06:30:52;20.10;99.90
18807;DHT22;9531;52.030;4.380;2022-08-19T06:33:18;20.20;99.90
18807;DHT22;9531;52.030;4.380;2022-08-19T06:35:46;20.30;99.90
18807;DHT22;9531;52.030;4.380;2022-08-19T06:38:13;20.50;99.90
18807;DHT22;9531;52.030;4.380;2022-08-19T06:40:41;20.70;99.90
18807;DHT22;9531;52.030;4.380;2022-08-19T06:43:09;21.00;99.90
18807;DHT22;9531;52.030;4.380;2022-08-19T06:45:36;21.30;99.90
18807;DHT22;9531;52.030;4.380;2022-08-19T06:48:04;21.70;99.90
18807;DHT22;9531;52.030;4.380;2022-08-19T06:50:30;22.00;99.90
18807;DHT22;9531;52.030;4.380;2022-08-19T06:52:57;22.30;99.90
18807;DHT22;9531;52.030;4.380;2022-08-19T06:55:24;22.60;99.90
18807;DHT22;9531;52.030;4.380;2022-08-19T06:57:52;22.70;99.90
18807;DHT22;9531;52.030;4.380;2022-08-19T07:00:21;22.80;99.90
18807;DHT22;9531;52.030;4.380;2022-08-19T07:02:48;22.90;99.90
18807;DHT22;9531;52.030;4.380;2022-08-19T07:05:15;22.90;99.90
18807;DHT22;9531;52.030;4.380;2022-08-19T07:07:43;23.00;99.90
18807;DHT22;9531;52.030;4.380;2022-08-19T07:10:10;22.90;99.90
18807;DHT22;9531;52.030;4.380;2022-08-19T07:12:38;23.00;99.90
18807;DHT22;9531;52.030;4.380;2022-08-19T07:15:07;23.00;99.90
18807;DHT22;9531;52.030;4.380;2022-08-19T07:17:40;22.90;99.90
18807;DHT22;9531;52.030;4.380;2022-08-19T07:20:10;23.00;99.90
18807;DHT22;9531;52.030;4.380;2022-08-19T07:22:37;22.90;99.90
18807;DHT22;9531;52.030;4.380;2022-08-19T07:25:07;22.90;99.90
18807;DHT22;9531;52.030;4.380;2022-08-19T07:27:35;22.90;99.90
18807;DHT22;9531;52.030;4.380;2022-08-19T07:30:04;22.90;99.90
18807;DHT22;9531;52.030;4.380;2022-08-19T07:32:32;23.00;99.90
18807;DHT22;9531;52.030;4.380;2022-08-19T07:35:00;23.00;99.90
18807;DHT22;9531;52.030;4.380;2022-08-19T07:37:29;23.10;99.90
18807;DHT22;9531;52.030;4.380;2022-08-19T07:39:56;23.10;99.90
18807;DHT22;9531;52.030;4.380;2022-08-19T07:42:23;23.10;99.90
18807;DHT22;9531;52.030;4.380;2022-08-19T07:44:50;23.20;99.90
18807;DHT22;9531;52.030;4.380;2022-08-19T07:47:17;23.20;99.90
18807;DHT22;9531;52.030;4.380;2022-08-19T07:49:45;23.20;99.90
18807;DHT22;9531;52.030;4.380;2022-08-19T07:52:14;23.30;99.90
18807;DHT22;9531;52.030;4.380;2022-08-19T07:54:42;23.30;99.90
18807;DHT22;9531;52.030;4.380;2022-08-19T07:57:09;23.20;99.90
18807;DHT22;9531;52.030;4.380;2022-08-19T07:59:37;23.30;99.90
18807;DHT22;9531;52.030;4.380;2022-08-19T08:02:04;23.30;99.90
18807;DHT22;9531;52.030;4.380;2022-08-19T08:04:34;23.30;99.90
18807;DHT22;9531;52.030;4.380;2022-08-19T08:07:19;23.30;99.90
18807;DHT22;9531;52.030;4.380;2022-08-19T08:10:05;23.30;99.90
18807;DHT22;9531;52.030;4.380;2022-08-19T08:12:35;23.40;99.90
18807;DHT22;9531;52.030;4.380;2022-08-19T08:15:08;23.60;99.90
18807;DHT22;9531;52.030;4.380;2022-08-19T08:17:35;23.80;99.90
18807;DHT22;9531;52.030;4.380;2022-08-19T08:20:04;23.90;99.90
18807;DHT22;9531;52.030;4.380;2022-08-19T08:22:34;24.00;99.90
18807;DHT22;9531;52.030;4.380;2022-08-19T08:25:20;24.00;99.90
18807;DHT22;9531;52.030;4.380;2022-08-19T08:27:49;24.10;99.90
18807;DHT22;9531;52.030;4.380;2022-08-19T08:30:19;24.10;99.90
18807;DHT22;9531;52.030;4.380;2022-08-19T08:32:48;24.30;99.90
18807;DHT22;9531;52.030;4.380;2022-08-19T08:35:19;24.70;99.90
18807;DHT22;9531;52.030;4.380;2022-08-19T08:37:50;25.10;99.90
18807;DHT22;9531;52.030;4.380;2022-08-19T08:40:22;25.30;99.90
18807;DHT22;9531;52.030;4.380;2022-08-19T08:42:57;25.30;99.90
18807;DHT22;9531;52.030;4.380;2022-08-19T08:45:27;25.30;99.90
18807;DHT22;9531;52.030;4.380;2022-08-19T08:48:00;25.20;99.90
18807;DHT22;9531;52.030;4.380;2022-08-19T08:50:31;25.20;99.90
18807;DHT22;9531;52.030;4.380;2022-08-19T08:53:06;25.50;99.90
18807;DHT22;9531;52.030;4.380;2022-08-19T08:55:36;25.90;99.90
18807;DHT22;9531;52.030;4.380;2022-08-19T08:58:07;26.50;99.90
18807;DHT22;9531;52.030;4.380;2022-08-19T09:00:48;27.00;99.90
18807;DHT22;9531;52.030;4.380;2022-08-19T09:03:18;27.50;99.90
18807;DHT22;9531;52.030;4.380;2022-08-19T09:05:56;27.80;99.90
18807;DHT22;9531;52.030;4.380;2022-08-19T09:08:40;28.00;99.90
18807;DHT22;9531;52.030;4.380;2022-08-19T09:11:14;28.20;99.90
18807;DHT22;9531;52.030;4.380;2022-08-19T09:13:47;28.10;99.90
18807;DHT22;9531;52.030;4.380;2022-08-19T09:16:21;27.90;99.90
18807;DHT22;9531;52.030;4.380;2022-08-19T09:18:54;27.90;99.90
18807;DHT22;9531;52.030;4.380;2022-08-19T09:21:24;27.80;99.90
18807;DHT22;9531;52.030;4.380;2022-08-19T09:23:53;27.60;99.90
18807;DHT22;9531;52.030;4.380;2022-08-19T09:26:23;27.50;99.90
18807;DHT22;9531;52.030;4.380;2022-08-19T09:28:52;27.30;99.90
18807;DHT22;9531;52.030;4.380;2022-08-19T09:31:22;27.00;99.90
18807;DHT22;9531;52.030;4.380;2022-08-19T09:33:50;26.80;99.90
18807;DHT22;9531;52.030;4.380;2022-08-19T09:36:20;26.70;99.90
18807;DHT22;9531;52.030;4.380;2022-08-19T09:38:48;26.50;99.90
18807;DHT22;9531;52.030;4.380;2022-08-19T09:41:20;26.40;99.90
18807;DHT22;9531;52.030;4.380;2022-08-19T09:43:49;26.40;99.90
18807;DHT22;9531;52.030;4.380;2022-08-19T09:46:19;26.50;99.90
18807;DHT22;9531;52.030;4.380;2022-08-19T09:48:46;26.70;99.90
18807;DHT22;9531;52.030;4.380;2022-08-19T09:51:15;26.90;99.90
18807;DHT22;9531;52.030;4.380;2022-08-19T09:53:48;27.10;99.90
18807;DHT22;9531;52.030;4.380;2022-08-19T09:56:21;27.20;99.90
18807;DHT22;9531;52.030;4.380;2022-08-19T09:58:49;27.30;99.90
18807;DHT22;9531;52.030;4.380;2022-08-19T10:01:17;27.30;99.90
18807;DHT22;9531;52.030;4.380;2022-08-19T10:03:46;27.40;99.90
18807;DHT22;9531;52.030;4.380;2022-08-19T10:06:13;27.50;99.90
18807;DHT22;9531;52.030;4.380;2022-08-19T10:08:40;27.50;99.90
18807;DHT22;9531;52.030;4.380;2022-08-19T10:11:10;27.50;99.90
18807;DHT22;9531;52.030;4.380;2022-08-19T10:13:42;27.60;99.90
18807;DHT22;9531;52.030;4.380;2022-08-19T10:16:09;27.70;99.90
18807;DHT22;9531;52.030;4.380;2022-08-19T10:18:36;27.80;99.90
18807;DHT22;9531;52.030;4.380;2022-08-19T10:21:05;27.90;99.90
18807;DHT22;9531;52.030;4.380;2022-08-19T10:23:34;28.10;99.90
18807;DHT22;9531;52.030;4.380;2022-08-19T10:26:01;28.10;99.90
18807;DHT22;9531;52.030;4.380;2022-08-19T10:28:30;28.10;99.90
18807;DHT22;9531;52.030;4.380;2022-08-19T10:30:58;28.20;99.90
18807;DHT22;9531;52.030;4.380;2022-08-19T10:33:25;28.30;99.90
18807;DHT22;9531;52.030;4.380;2022-08-19T10:35:58;28.40;99.90
18807;DHT22;9531;52.030;4.380;2022-08-19T10:38:25;28.40;99.90
18807;DHT22;9531;52.030;4.380;2022-08-19T10:40:52;28.30;99.90
18807;DHT22;9531;52.030;4.380;2022-08-19T10:43:19;28.30;99.90
18807;DHT22;9531;52.030;4.380;2022-08-19T10:45:48;28.10;99.90
18807;DHT22;9531;52.030;4.380;2022-08-19T10:48:19;28.00;99.90
18807;DHT22;9531;52.030;4.380;2022-08-19T10:50:46;27.80;99.90
18807;DHT22;9531;52.030;4.380;2022-08-19T10:53:30;27.70;99.90
18807;DHT22;9531;52.030;4.380;2022-08-19T10:55:59;27.50;99.90
18807;DHT22;9531;52.030;4.380;2022-08-19T10:58:44;27.40;99.90
18807;DHT22;9531;52.030;4.380;2022-08-19T11:01:10;27.30;99.90
18807;DHT22;9531;52.030;4.380;2022-08-19T11:03:39;27.30;99.90
18807;DHT22;9531;52.030;4.380;2022-08-19T11:06:07;27.20;99.90
18807;DHT22;9531;52.030;4.380;2022-08-19T11:08:34;27.20;99.90
18807;DHT22;9531;52.030;4.380;2022-08-19T11:11:03;27.20;99.90
18807;DHT22;9531;52.030;4.380;2022-08-19T11:13:32;27.10;99.90
18807;DHT22;9531;52.030;4.380;2022-08-19T11:16:02;27.10;99.90
18807;DHT22;9531;52.030;4.380;2022-08-19T11:18:29;27.00;99.90
18807;DHT22;9531;52.030;4.380;2022-08-19T11:21:05;27.00;99.90
18807;DHT22;9531;52.030;4.380;2022-08-19T11:23:32;26.90;99.90
18807;DHT22;9531;52.030;4.380;2022-08-19T11:25:59;26.80;99.90
18807;DHT22;9531;52.030;4.380;2022-08-19T11:28:26;26.70;99.90
18807;DHT22;9531;52.030;4.380;2022-08-19T11:30:54;26.70;99.90
18807;DHT22;9531;52.030;4.380;2022-08-19T11:33:22;26.70;99.90
18807;DHT22;9531;52.030;4.380;2022-08-19T11:35:52;26.60;99.90
18807;DHT22;9531;52.030;4.380;2022-08-19T11:38:21;26.50;99.90
18807;DHT22;9531;52.030;4.380;2022-08-19T11:40:57;26.40;99.90
18807;DHT22;9531;52.030;4.380;2022-08-19T11:43:26;26.30;99.90
18807;DHT22;9531;52.030;4.380;2022-08-19T11:45:54;26.20;99.90
18807;DHT22;9531;52.030;4.380;2022-08-19T11:48:22;26.10;99.90
18807;DHT22;9531;52.030;4.380;2022-08-19T11:50:49;26.10;99.90
18807;DHT22;9531;52.030;4.380;2022-08-19T11:53:16;26.10;99.90
18807;DHT22;9531;52.030;4.380;2022-08-19T11:55:46;26.10;99.90
18807;DHT22;9531;52.030;4.380;2022-08-19T11:58:14;26.10;99.90
18807;DHT22;9531;52.030;4.380;2022-08-19T12:00:42;26.10;99.90
18807;DHT22;9531;52.030;4.380;2022-08-19T12:03:11;26.20;99.90
18807;DHT22;9531;52.030;4.380;2022-08-19T12:05:39;26.20;99.90
18807;DHT22;9531;52.030;4.380;2022-08-19T12:08:06;26.20;99.90
18807;DHT22;9531;52.030;4.380;2022-08-19T12:10:34;26.30;99.90
18807;DHT22;9531;52.030;4.380;2022-08-19T12:13:02;26.30;99.90
18807;DHT22;9531;52.030;4.380;2022-08-19T12:15:34;26.40;99.90
18807;DHT22;9531;52.030;4.380;2022-08-19T12:18:02;26.40;99.90
18807;DHT22;9531;52.030;4.380;2022-08-19T12:20:29;26.30;99.90
18807;DHT22;9531;52.030;4.380;2022-08-19T12:22:55;26.30;99.90
18807;DHT22;9531;52.030;4.380;2022-08-19T12:25:22;26.20;99.90
18807;DHT22;9531;52.030;4.380;2022-08-19T12:27:50;26.20;99.90
18807;DHT22;9531;52.030;4.380;2022-08-19T12:30:18;26.00;99.90
18807;DHT22;9531;52.030;4.380;2022-08-19T12:32:46;26.00;99.90
18807;DHT22;9531;52.030;4.380;2022-08-19T12:35:13;25.90;99.90
18807;DHT22;9531;52.030;4.380;2022-08-19T12:37:41;25.80;99.90
18807;DHT22;9531;52.030;4.380;2022-08-19T12:40:10;25.90;99.90
18807;DHT22;9531;52.030;4.380;2022-08-19T12:42:38;26.00;99.90
18807;DHT22;9531;52.030;4.380;2022-08-19T12:45:09;26.10;99.90
18807;DHT22;9531;52.030;4.380;2022-08-19T12:47:37;26.20;99.90
18807;DHT22;9531;52.030;4.380;2022-08-19T12:50:04;26.30;99.90
18807;DHT22;9531;52.030;4.380;2022-08-19T12:52:36;26.40;99.90
18807;DHT22;9531;52.030;4.380;2022-08-19T12:55:04;26.50;99.90
18807;DHT22;9531;52.030;4.380;2022-08-19T12:57:31;26.70;99.90
18807;DHT22;9531;52.030;4.380;2022-08-19T13:00:00;27.00;99.90
18807;DHT22;9531;52.030;4.380;2022-08-19T13:02:29;27.20;99.90
18807;DHT22;9531;52.030;4.380;2022-08-19T13:05:00;27.50;99.90
18807;DHT22;9531;52.030;4.380;2022-08-19T13:07:27;27.80;99.90
18807;DHT22;9531;52.030;4.380;2022-08-19T13:09:54;28.20;99.90
18807;DHT22;9531;52.030;4.380;2022-08-19T13:12:20;28.50;99.90
18807;DHT22;9531;52.030;4.380;2022-08-19T13:14:49;28.80;99.90
18807;DHT22;9531;52.030;4.380;2022-08-19T13:17:17;29.00;99.90
18807;DHT22;9531;52.030;4.380;2022-08-19T13:19:44;29.00;99.90
18807;DHT22;9531;52.030;4.380;2022-08-19T13:22:12;29.20;99.90
18807;DHT22;9531;52.030;4.380;2022-08-19T13:24:39;29.30;99.90
18807;DHT22;9531;52.030;4.380;2022-08-19T13:27:06;29.50;99.90
18807;DHT22;9531;52.030;4.380;2022-08-19T13:29:34;29.50;99.90
18807;DHT22;9531;52.030;4.380;2022-08-19T13:32:18;29.50;99.90
18807;DHT22;9531;52.030;4.380;2022-08-19T13:35:03;29.40;99.90
18807;DHT22;9531;52.030;4.380;2022-08-19T13:37:32;29.30;99.90
18807;DHT22;9531;52.030;4.380;2022-08-19T13:40:09;29.30;99.90
18807;DHT22;9531;52.030;4.380;2022-08-19T13:42:38;29.30;99.90
18807;DHT22;9531;52.030;4.380;2022-08-19T13:45:05;29.30;99.90
18807;DHT22;9531;52.030;4.380;2022-08-19T13:47:32;29.30;99.90
18807;DHT22;9531;52.030;4.380;2022-08-19T13:49:59;29.30;99.90
18807;DHT22;9531;52.030;4.380;2022-08-19T13:52:27;29.30;99.90
18807;DHT22;9531;52.030;4.380;2022-08-19T13:54:55;29.30;99.90
18807;DHT22;9531;52.030;4.380;2022-08-19T13:57:23;29.30;99.90
18807;DHT22;9531;52.030;4.380;2022-08-19T13:59:50;29.30;99.90
18807;DHT22;9531;52.030;4.380;2022-08-19T14:02:17;29.30;99.90
18807;DHT22;9531;52.030;4.380;2022-08-19T14:04:44;29.30;99.90
18807;DHT22;9531;52.030;4.380;2022-08-19T14:07:11;29.50;99.90
18807;DHT22;9531;52.030;4.380;2022-08-19T14:09:38;29.60;99.90
18807;DHT22;9531;52.030;4.380;2022-08-19T14:12:07;29.80;99.90
18807;DHT22;9531;52.030;4.380;2022-08-19T14:14:36;29.90;99.90
18807;DHT22;9531;52.030;4.380;2022-08-19T14:17:05;30.00;99.90
18807;DHT22;9531;52.030;4.380;2022-08-19T14:19:42;30.10;99.90
18807;DHT22;9531;52.030;4.380;2022-08-19T14:22:09;30.10;99.90
18807;DHT22;9531;52.030;4.380;2022-08-19T14:24:37;30.10;99.90
18807;DHT22;9531;52.030;4.380;2022-08-19T14:27:04;30.10;99.90
18807;DHT22;9531;52.030;4.380;2022-08-19T14:29:33;30.00;99.90
18807;DHT22;9531;52.030;4.380;2022-08-19T14:32:00;29.90;99.90
18807;DHT22;9531;52.030;4.380;2022-08-19T14:34:27;29.80;99.90
18807;DHT22;9531;52.030;4.380;2022-08-19T14:36:53;29.70;99.90
18807;DHT22;9531;52.030;4.380;2022-08-19T14:39:20;29.60;99.90
18807;DHT22;9531;52.030;4.380;2022-08-19T14:41:48;29.40;99.90
18807;DHT22;9531;52.030;4.380;2022-08-19T14:44:15;29.30;99.90
18807;DHT22;9531;52.030;4.380;2022-08-19T14:46:44;29.10;99.90
18807;DHT22;9531;52.030;4.380;2022-08-19T14:49:12;29.00;99.90
18807;DHT22;9531;52.030;4.380;2022-08-19T14:51:38;28.90;99.90
18807;DHT22;9531;52.030;4.380;2022-08-19T14:54:05;28.80;99.90
18807;DHT22;9531;52.030;4.380;2022-08-19T14:56:32;28.70;99.90
18807;DHT22;9531;52.030;4.380;2022-08-19T14:58:59;28.70;99.90
18807;DHT22;9531;52.030;4.380;2022-08-19T15:01:26;28.70;99.90
18807;DHT22;9531;52.030;4.380;2022-08-19T15:03:55;28.70;99.90
18807;DHT22;9531;52.030;4.380;2022-08-19T15:06:22;28.60;99.90
18807;DHT22;9531;52.030;4.380;2022-08-19T15:08:50;28.40;99.90
18807;DHT22;9531;52.030;4.380;2022-08-19T15:11:20;28.30;99.90
18807;DHT22;9531;52.030;4.380;2022-08-19T15:13:48;28.20;99.90
18807;DHT22;9531;52.030;4.380;2022-08-19T15:16:15;28.00;99.90
18807;DHT22;9531;52.030;4.380;2022-08-19T15:18:43;27.80;99.90
18807;DHT22;9531;52.030;4.380;2022-08-19T15:21:13;27.70;99.90
18807;DHT22;9531;52.030;4.380;2022-08-19T15:23:41;27.50;99.90
18807;DHT22;9531;52.030;4.380;2022-08-19T15:26:10;27.30;99.90
18807;DHT22;9531;52.030;4.380;2022-08-19T15:28:37;27.20;99.90
18807;DHT22;9531;52.030;4.380;2022-08-19T15:31:04;27.00;99.90
18807;DHT22;9531;52.030;4.380;2022-08-19T15:33:32;26.90;99.90
18807;DHT22;9531;52.030;4.380;2022-08-19T15:36:00;26.80;99.90
18807;DHT22;9531;52.030;4.380;2022-08-19T15:38:30;26.70;99.90
18807;DHT22;9531;52.030;4.380;2022-08-19T15:40:58;26.60;99.90
18807;DHT22;9531;52.030;4.380;2022-08-19T15:43:45;26.50;99.90
18807;DHT22;9531;52.030;4.380;2022-08-19T15:46:14;26.40;99.90
18807;DHT22;9531;52.030;4.380;2022-08-19T15:48:43;26.40;99.90
18807;DHT22;9531;52.030;4.380;2022-08-19T15:51:10;26.30;99.90
18807;DHT22;9531;52.030;4.380;2022-08-19T15:53:39;26.30;99.90
18807;DHT22;9531;52.030;4.380;2022-08-19T15:56:06;26.20;99.90